sensor_id;sensor_type;location;lat;lon;timestamp;pressure;altitude;pressure_sealevel;temperature;humidity
9225;BME280;4647;48.072;11.616;2023-05-14T00:00:08;95180.84;;;11.28;84.15
9225;BME280;4647;48.072;11.616;2023-05-14T00:02:37;95189.59;;;11.35;83.85
9225;BME280;4647;48.072;11.616;2023-05-14T00:05:06;95182.38;;;11.29;84.30
9225;BME280;4647;48.072;11.616;2023-05-14T00:07:34;95181.13;;;11.33;83.96
9225;BME280;4647;48.072;11.616;2023-05-14T00:10:03;95179.59;;;11.32;84.04
9225;BME280;4647;48.072;11.616;2023-05-14T00:12:32;95176.59;;;11.27;84.37
9225;BME280;4647;48.072;11.616;2023-05-14T00:15:01;95166.25;;;11.22;83.77
9225;BME280;4647;48.072;11.616;2023-05-14T00:17:32;95174.03;;;11.20;84.08
9225;BME280;4647;48.072;11.616;2023-05-14T00:20:01;95158.34;;;11.07;83.96
9225;BME280;4647;48.072;11.616;2023-05-14T00:22:31;95170.63;;;11.16;84.07
9225;BME280;4647;48.072;11.616;2023-05-14T00:25:01;95172.25;;;11.10;84.33
9225;BME280;4647;48.072;11.616;2023-05-14T00:27:30;95154.59;;;11.01;83.95
9225;BME280;4647;48.072;11.616;2023-05-14T00:29:58;95147.09;;;11.09;83.54
9225;BME280;4647;48.072;11.616;2023-05-14T00:32:26;95158.16;;;10.98;84.54
9225;BME280;4647;48.072;11.616;2023-05-14T00:34:58;95161.63;;;10.99;84.21
9225;BME280;4647;48.072;11.616;2023-05-14T00:37:27;95163.28;;;10.93;84.47
9225;BME280;4647;48.072;11.616;2023-05-14T00:39:56;95163.75;;;10.88;85.07
9225;BME280;4647;48.072;11.616;2023-05-14T00:42:24;95165.38;;;11.05;85.04
9225;BME280;4647;48.072;11.616;2023-05-14T00:44:53;95166.50;;;11.07;84.61
9225;BME280;4647;48.072;11.616;2023-05-14T00:47:22;95158.00;;;11.05;84.86
9225;BME280;4647;48.072;11.616;2023-05-14T00:49:50;95163.97;;;10.97;84.94
9225;BME280;4647;48.072;11.616;2023-05-14T00:52:21;95159.88;;;10.89;85.13
9225;BME280;4647;48.072;11.616;2023-05-14T00:54:50;95168.53;;;10.80;85.47
9225;BME280;4647;48.072;11.616;2023-05-14T00:57:19;95166.44;;;10.88;85.25
9225;BME280;4647;48.072;11.616;2023-05-14T00:59:47;95169.34;;;11.00;84.58
9225;BME280;4647;48.072;11.616;2023-05-14T01:02:16;95161.22;;;10.77;85.21
9225;BME280;4647;48.072;11.616;2023-05-14T01:04:44;95167.00;;;10.79;85.26
9225;BME280;4647;48.072;11.616;2023-05-14T01:07:24;95162.97;;;10.64;85.70
9225;BME280;4647;48.072;11.616;2023-05-14T01:10:01;95159.63;;;10.80;85.26
9225;BME280;4647;48.072;11.616;2023-05-14T01:12:35;95155.09;;;10.73;85.15
9225;BME280;4647;48.072;11.616;2023-05-14T01:15:09;95163.31;;;10.69;85.35
9225;BME280;4647;48.072;11.616;2023-05-14T01:17:42;95148.72;;;10.83;85.27
9225;BME280;4647;48.072;11.616;2023-05-14T01:20:13;95150.31;;;10.57;85.43
9225;BME280;4647;48.072;11.616;2023-05-14T01:22:45;95153.44;;;10.79;84.83
9225;BME280;4647;48.072;11.616;2023-05-14T01:25:13;95152.84;;;10.91;84.26
9225;BME280;4647;48.072;11.616;2023-05-14T01:27:47;95148.03;;;10.79;84.68
9225;BME280;4647;48.072;11.616;2023-05-14T01:30:20;95143.97;;;10.91;84.53
9225;BME280;4647;48.072;11.616;2023-05-14T01:32:53;95143.91;;;10.94;84.37
9225;BME280;4647;48.072;11.616;2023-05-14T01:35:25;95138.44;;;10.74;84.62
9225;BME280;4647;48.072;11.616;2023-05-14T01:37:59;95128.06;;;10.69;84.71
9225;BME280;4647;48.072;11.616;2023-05-14T01:40:28;95126.22;;;10.86;84.20
9225;BME280;4647;48.072;11.616;2023-05-14T01:42:59;95115.81;;;10.61;84.74
9225;BME280;4647;48.072;11.616;2023-05-14T01:45:29;95106.09;;;10.40;85.39
9225;BME280;4647;48.072;11.616;2023-05-14T01:47:58;95132.31;;;10.47;85.43
9225;BME280;4647;48.072;11.616;2023-05-14T01:50:26;95119.75;;;10.57;85.16
9225;BME280;4647;48.072;11.616;2023-05-14T01:52:57;95116.72;;;10.55;85.33
9225;BME280;4647;48.072;11.616;2023-05-14T01:55:26;95124.25;;;10.43;85.41
9225;BME280;4647;48.072;11.616;2023-05-14T01:57:54;95128.44;;;10.48;85.26
9225;BME280;4647;48.072;11.616;2023-05-14T02:00:23;95123.00;;;10.48;85.38
9225;BME280;4647;48.072;11.616;2023-05-14T02:02:52;95126.34;;;10.32;86.19
9225;BME280;4647;48.072;11.616;2023-05-14T02:05:20;95120.72;;;10.47;85.68
9225;BME280;4647;48.072;11.616;2023-05-14T02:07:49;95121.72;;;10.33;85.58
9225;BME280;4647;48.072;11.616;2023-05-14T02:10:20;95101.78;;;9.93;85.93
9225;BME280;4647;48.072;11.616;2023-05-14T02:12:49;95109.59;;;10.14;85.55
9225;BME280;4647;48.072;11.616;2023-05-14T02:15:17;95119.28;;;10.38;84.95
9225;BME280;4647;48.072;11.616;2023-05-14T02:17:46;95120.25;;;10.01;85.55
9225;BME280;4647;48.072;11.616;2023-05-14T02:20:15;95118.06;;;10.16;84.96
9225;BME280;4647;48.072;11.616;2023-05-14T02:22:44;95123.81;;;9.95;86.11
9225;BME280;4647;48.072;11.616;2023-05-14T02:25:17;95119.78;;;10.06;85.51
9225;BME280;4647;48.072;11.616;2023-05-14T02:27:49;95125.19;;;10.06;85.72
9225;BME280;4647;48.072;11.616;2023-05-14T02:30:20;95121.31;;;10.07;85.96
9225;BME280;4647;48.072;11.616;2023-05-14T02:32:49;95121.91;;;9.92;85.75
9225;BME280;4647;48.072;11.616;2023-05-14T02:35:18;95120.19;;;9.78;86.28
9225;BME280;4647;48.072;11.616;2023-05-14T02:37:48;95117.63;;;9.67;86.50
9225;BME280;4647;48.072;11.616;2023-05-14T02:40:17;95114.78;;;9.78;86.51
9225;BME280;4647;48.072;11.616;2023-05-14T02:42:49;95119.19;;;9.95;85.86
9225;BME280;4647;48.072;11.616;2023-05-14T02:45:20;95109.19;;;9.89;86.14
9225;BME280;4647;48.072;11.616;2023-05-14T02:47:49;95115.50;;;9.82;86.47
9225;BME280;4647;48.072;11.616;2023-05-14T02:50:17;95116.59;;;9.84;86.00
9225;BME280;4647;48.072;11.616;2023-05-14T02:52:46;95107.06;;;9.76;86.62
9225;BME280;4647;48.072;11.616;2023-05-14T02:55:15;95111.66;;;9.79;86.54
9225;BME280;4647;48.072;11.616;2023-05-14T02:57:44;95112.06;;;9.51;87.64
9225;BME280;4647;48.072;11.616;2023-05-14T03:00:16;95103.31;;;9.67;86.94
9225;BME280;4647;48.072;11.616;2023-05-14T03:02:50;95106.50;;;9.62;87.39
9225;BME280;4647;48.072;11.616;2023-05-14T03:05:19;95108.19;;;9.52;87.76
9225;BME280;4647;48.072;11.616;2023-05-14T03:07:49;95103.84;;;9.58;87.52
9225;BME280;4647;48.072;11.616;2023-05-14T03:10:18;95109.38;;;9.78;87.11
9225;BME280;4647;48.072;11.616;2023-05-14T03:12:47;95113.13;;;9.84;86.71
9225;BME280;4647;48.072;11.616;2023-05-14T03:15:19;95101.91;;;9.85;86.89
9225;BME280;4647;48.072;11.616;2023-05-14T03:17:47;95104.25;;;9.83;86.81
9225;BME280;4647;48.072;11.616;2023-05-14T03:20:18;95091.53;;;9.80;86.33
9225;BME280;4647;48.072;11.616;2023-05-14T03:22:46;95098.28;;;9.69;87.07
9225;BME280;4647;48.072;11.616;2023-05-14T03:25:15;95098.59;;;9.74;87.34
9225;BME280;4647;48.072;11.616;2023-05-14T03:27:44;95102.31;;;9.57;87.54
9225;BME280;4647;48.072;11.616;2023-05-14T03:30:19;95100.69;;;9.33;88.89
9225;BME280;4647;48.072;11.616;2023-05-14T03:32:48;95091.91;;;9.56;88.47
9225;BME280;4647;48.072;11.616;2023-05-14T03:35:17;95087.97;;;9.60;88.14
9225;BME280;4647;48.072;11.616;2023-05-14T03:37:46;95098.53;;;9.51;88.58
9225;BME280;4647;48.072;11.616;2023-05-14T03:40:15;95093.75;;;9.32;89.08
9225;BME280;4647;48.072;11.616;2023-05-14T03:42:44;95092.94;;;9.35;89.10
9225;BME280;4647;48.072;11.616;2023-05-14T03:45:13;95099.59;;;9.57;88.23
9225;BME280;4647;48.072;11.616;2023-05-14T03:47:44;95098.25;;;9.42;88.63
9225;BME280;4647;48.072;11.616;2023-05-14T03:50:12;95101.28;;;9.47;88.82
9225;BME280;4647;48.072;11.616;2023-05-14T03:52:41;95091.69;;;9.70;87.85
9225;BME280;4647;48.072;11.616;2023-05-14T03:55:10;95098.47;;;9.54;88.16
9225;BME280;4647;48.072;11.616;2023-05-14T03:57:41;95088.16;;;9.46;88.58
9225;BME280;4647;48.072;11.616;2023-05-14T04:00:11;95091.41;;;9.34;89.37
9225;BME280;4647;48.072;11.616;2023-05-14T04:02:41;95089.38;;;9.41;89.09
9225;BME280;4647;48.072;11.616;2023-05-14T04:05:12;95097.72;;;9.23;90.11
9225;BME280;4647;48.072;11.616;2023-05-14T04:07:44;95089.59;;;9.54;88.96
9225;BME280;4647;48.072;11.616;2023-05-14T04:10:14;95088.06;;;9.53;88.41
9225;BME280;4647;48.072;11.616;2023-05-14T04:12:43;95094.91;;;9.61;88.26
9225;BME280;4647;48.072;11.616;2023-05-14T04:15:24;95096.66;;;9.44;89.45
9225;BME280;4647;48.072;11.616;2023-05-14T04:17:55;95090.56;;;9.67;88.68
9225;BME280;4647;48.072;11.616;2023-05-14T04:20:28;95092.09;;;9.68;87.99
9225;BME280;4647;48.072;11.616;2023-05-14T04:22:57;95100.41;;;9.54;88.71
9225;BME280;4647;48.072;11.616;2023-05-14T04:25:33;95100.94;;;9.72;88.43
9225;BME280;4647;48.072;11.616;2023-05-14T04:28:01;95090.72;;;9.57;88.54
9225;BME280;4647;48.072;11.616;2023-05-14T04:30:30;95094.84;;;9.65;88.45
9225;BME280;4647;48.072;11.616;2023-05-14T04:32:58;95095.44;;;9.79;87.63
9225;BME280;4647;48.072;11.616;2023-05-14T04:35:30;95097.16;;;9.66;88.14
9225;BME280;4647;48.072;11.616;2023-05-14T04:37:58;95101.13;;;9.58;88.34
9225;BME280;4647;48.072;11.616;2023-05-14T04:40:27;95108.06;;;9.59;88.89
9225;BME280;4647;48.072;11.616;2023-05-14T04:42:56;95104.91;;;9.64;88.53
9225;BME280;4647;48.072;11.616;2023-05-14T04:45:25;95104.91;;;9.64;88.16
9225;BME280;4647;48.072;11.616;2023-05-14T04:47:54;95104.34;;;9.49;89.16
9225;BME280;4647;48.072;11.616;2023-05-14T04:50:22;95113.03;;;9.64;88.54
9225;BME280;4647;48.072;11.616;2023-05-14T04:52:54;95093.88;;;9.51;88.79
9225;BME280;4647;48.072;11.616;2023-05-14T04:55:23;95111.69;;;9.49;88.94
9225;BME280;4647;48.072;11.616;2023-05-14T04:57:52;95101.94;;;9.55;89.10
9225;BME280;4647;48.072;11.616;2023-05-14T05:00:20;95099.50;;;9.64;88.48
9225;BME280;4647;48.072;11.616;2023-05-14T05:02:50;95101.53;;;9.57;88.80
9225;BME280;4647;48.072;11.616;2023-05-14T05:05:18;95106.06;;;9.36;89.18
9225;BME280;4647;48.072;11.616;2023-05-14T05:07:47;95102.06;;;9.48;89.11
9225;BME280;4647;48.072;11.616;2023-05-14T05:10:18;95109.25;;;9.58;89.43
9225;BME280;4647;48.072;11.616;2023-05-14T05:12:47;95103.06;;;9.58;89.10
9225;BME280;4647;48.072;11.616;2023-05-14T05:15:15;95104.47;;;9.39;89.48
9225;BME280;4647;48.072;11.616;2023-05-14T05:17:44;95110.28;;;9.37;89.93
9225;BME280;4647;48.072;11.616;2023-05-14T05:20:12;95114.19;;;9.63;89.13
9225;BME280;4647;48.072;11.616;2023-05-14T05:22:41;95102.97;;;9.65;88.41
9225;BME280;4647;48.072;11.616;2023-05-14T05:25:09;95107.72;;;9.57;89.33
9225;BME280;4647;48.072;11.616;2023-05-14T05:27:40;95106.72;;;9.74;88.62
9225;BME280;4647;48.072;11.616;2023-05-14T05:30:10;95108.50;;;9.84;88.09
9225;BME280;4647;48.072;11.616;2023-05-14T05:32:39;95109.41;;;10.01;87.84
9225;BME280;4647;48.072;11.616;2023-05-14T05:35:08;95107.97;;;10.20;87.25
9225;BME280;4647;48.072;11.616;2023-05-14T05:37:37;95107.13;;;10.27;86.43
9225;BME280;4647;48.072;11.616;2023-05-14T05:40:07;95101.03;;;10.19;86.30
9225;BME280;4647;48.072;11.616;2023-05-14T05:42:36;95110.28;;;10.22;86.45
9225;BME280;4647;48.072;11.616;2023-05-14T05:45:08;95098.81;;;10.37;85.39
9225;BME280;4647;48.072;11.616;2023-05-14T05:47:36;95112.47;;;10.30;85.19
9225;BME280;4647;48.072;11.616;2023-05-14T05:50:06;95107.28;;;10.39;85.36
9225;BME280;4647;48.072;11.616;2023-05-14T05:52:35;95110.31;;;10.45;85.11
9225;BME280;4647;48.072;11.616;2023-05-14T05:55:05;95113.34;;;10.47;84.75
9225;BME280;4647;48.072;11.616;2023-05-14T05:57:33;95108.09;;;10.36;85.63
9225;BME280;4647;48.072;11.616;2023-05-14T06:00:02;95104.34;;;10.30;85.08
9225;BME280;4647;48.072;11.616;2023-05-14T06:02:40;95105.75;;;10.38;85.18
9225;BME280;4647;48.072;11.616;2023-05-14T06:05:09;95102.88;;;10.26;85.25
9225;BME280;4647;48.072;11.616;2023-05-14T06:07:38;95105.72;;;10.15;85.61
9225;BME280;4647;48.072;11.616;2023-05-14T06:10:07;95102.53;;;10.24;85.31
9225;BME280;4647;48.072;11.616;2023-05-14T06:12:36;95106.09;;;10.40;85.75
9225;BME280;4647;48.072;11.616;2023-05-14T06:15:06;95104.91;;;10.18;86.08
9225;BME280;4647;48.072;11.616;2023-05-14T06:17:34;95100.81;;;10.33;85.67
9225;BME280;4647;48.072;11.616;2023-05-14T06:20:07;95097.59;;;10.42;85.32
9225;BME280;4647;48.072;11.616;2023-05-14T06:22:35;95100.28;;;10.65;84.70
9225;BME280;4647;48.072;11.616;2023-05-14T06:25:05;95098.34;;;10.66;84.15
9225;BME280;4647;48.072;11.616;2023-05-14T06:27:34;95103.38;;;10.64;84.71
9225;BME280;4647;48.072;11.616;2023-05-14T06:30:03;95087.97;;;10.61;84.29
9225;BME280;4647;48.072;11.616;2023-05-14T06:32:32;95069.91;;;10.31;84.80
9225;BME280;4647;48.072;11.616;2023-05-14T06:35:01;95108.69;;;10.71;84.29
9225;BME280;4647;48.072;11.616;2023-05-14T06:37:32;95103.66;;;10.93;83.87
9225;BME280;4647;48.072;11.616;2023-05-14T06:40:01;95104.69;;;10.99;83.20
9225;BME280;4647;48.072;11.616;2023-05-14T06:42:30;95108.78;;;11.07;82.87
9225;BME280;4647;48.072;11.616;2023-05-14T06:44:58;95104.47;;;11.10;82.34
9225;BME280;4647;48.072;11.616;2023-05-14T06:47:27;95099.47;;;11.08;82.57
9225;BME280;4647;48.072;11.616;2023-05-14T06:49:55;95110.78;;;10.83;83.12
9225;BME280;4647;48.072;11.616;2023-05-14T06:52:26;95105.81;;;11.01;82.99
9225;BME280;4647;48.072;11.616;2023-05-14T06:54:57;95106.63;;;10.98;82.78
9225;BME280;4647;48.072;11.616;2023-05-14T06:57:26;95053.22;;;10.56;82.44
9225;BME280;4647;48.072;11.616;2023-05-14T06:59:55;95096.25;;;10.73;83.51
9225;BME280;4647;48.072;11.616;2023-05-14T07:02:23;95102.84;;;11.16;81.76
9225;BME280;4647;48.072;11.616;2023-05-14T07:04:52;95082.72;;;11.33;80.74
9225;BME280;4647;48.072;11.616;2023-05-14T07:07:21;95078.59;;;11.81;79.79
9225;BME280;4647;48.072;11.616;2023-05-14T07:09:50;95080.91;;;11.46;79.97
9225;BME280;4647;48.072;11.616;2023-05-14T07:12:21;95079.69;;;11.67;78.91
9225;BME280;4647;48.072;11.616;2023-05-14T07:14:51;95067.03;;;11.77;78.41
9225;BME280;4647;48.072;11.616;2023-05-14T07:17:21;95082.44;;;11.47;79.46
9225;BME280;4647;48.072;11.616;2023-05-14T07:19:50;95070.00;;;11.66;78.50
9225;BME280;4647;48.072;11.616;2023-05-14T07:22:20;95081.19;;;11.68;78.49
9225;BME280;4647;48.072;11.616;2023-05-14T07:24:48;95074.81;;;11.94;77.76
9225;BME280;4647;48.072;11.616;2023-05-14T07:27:17;95082.38;;;11.87;77.77
9225;BME280;4647;48.072;11.616;2023-05-14T07:29:48;95075.84;;;11.84;78.36
9225;BME280;4647;48.072;11.616;2023-05-14T07:32:17;95075.00;;;11.87;77.94
9225;BME280;4647;48.072;11.616;2023-05-14T07:34:46;95064.56;;;12.18;76.97
9225;BME280;4647;48.072;11.616;2023-05-14T07:37:14;95054.34;;;12.84;73.62
9225;BME280;4647;48.072;11.616;2023-05-14T07:39:48;95056.06;;;13.07;72.20
9225;BME280;4647;48.072;11.616;2023-05-14T07:42:17;95052.28;;;13.17;71.72
9225;BME280;4647;48.072;11.616;2023-05-14T07:44:48;95062.06;;;13.94;69.99
9225;BME280;4647;48.072;11.616;2023-05-14T07:47:17;95063.59;;;13.95;69.27
9225;BME280;4647;48.072;11.616;2023-05-14T07:49:46;95055.97;;;13.90;69.78
9225;BME280;4647;48.072;11.616;2023-05-14T07:52:14;95058.13;;;13.44;70.96
9225;BME280;4647;48.072;11.616;2023-05-14T07:54:45;95059.91;;;12.80;72.16
9225;BME280;4647;48.072;11.616;2023-05-14T07:57:13;95054.16;;;12.62;73.85
9225;BME280;4647;48.072;11.616;2023-05-14T07:59:42;95067.69;;;12.17;75.80
9225;BME280;4647;48.072;11.616;2023-05-14T08:02:15;95070.31;;;12.20;76.70
9225;BME280;4647;48.072;11.616;2023-05-14T08:04:43;95073.13;;;12.17;74.96
9225;BME280;4647;48.072;11.616;2023-05-14T08:07:12;95072.69;;;12.02;76.03
9225;BME280;4647;48.072;11.616;2023-05-14T08:09:41;95068.59;;;12.59;73.60
9225;BME280;4647;48.072;11.616;2023-05-14T08:12:10;95070.25;;;12.85;72.34
9225;BME280;4647;48.072;11.616;2023-05-14T08:14:38;95071.03;;;12.70;73.85
9225;BME280;4647;48.072;11.616;2023-05-14T08:17:07;95078.63;;;12.29;75.08
9225;BME280;4647;48.072;11.616;2023-05-14T08:19:40;95078.75;;;11.74;77.18
9225;BME280;4647;48.072;11.616;2023-05-14T08:22:09;95072.41;;;11.80;77.57
9225;BME280;4647;48.072;11.616;2023-05-14T08:24:38;95076.94;;;11.87;76.85
9225;BME280;4647;48.072;11.616;2023-05-14T08:27:07;95080.69;;;11.93;75.89
9225;BME280;4647;48.072;11.616;2023-05-14T08:29:36;95077.88;;;11.60;76.62
9225;BME280;4647;48.072;11.616;2023-05-14T08:32:05;95065.19;;;11.74;76.09
9225;BME280;4647;48.072;11.616;2023-05-14T08:34:33;95069.06;;;11.92;76.46
9225;BME280;4647;48.072;11.616;2023-05-14T08:37:04;95063.28;;;12.39;74.17
9225;BME280;4647;48.072;11.616;2023-05-14T08:39:33;95070.16;;;12.44;74.46
9225;BME280;4647;48.072;11.616;2023-05-14T08:42:05;95063.00;;;12.50;73.85
9225;BME280;4647;48.072;11.616;2023-05-14T08:44:38;95054.59;;;12.44;73.62
9225;BME280;4647;48.072;11.616;2023-05-14T08:47:11;95060.91;;;12.25;75.13
9225;BME280;4647;48.072;11.616;2023-05-14T08:49:42;95063.78;;;12.18;75.82
9225;BME280;4647;48.072;11.616;2023-05-14T08:52:15;95060.13;;;12.24;75.13
9225;BME280;4647;48.072;11.616;2023-05-14T08:54:45;95062.63;;;11.66;77.29
9225;BME280;4647;48.072;11.616;2023-05-14T08:57:18;95062.78;;;12.12;76.26
9225;BME280;4647;48.072;11.616;2023-05-14T08:59:49;95059.22;;;12.15;75.72
9225;BME280;4647;48.072;11.616;2023-05-14T09:02:20;95053.59;;;12.54;74.39
9225;BME280;4647;48.072;11.616;2023-05-14T09:04:54;95055.19;;;12.52;73.61
9225;BME280;4647;48.072;11.616;2023-05-14T09:07:26;95051.03;;;12.76;73.65
9225;BME280;4647;48.072;11.616;2023-05-14T09:09:55;95058.00;;;12.77;72.99
9225;BME280;4647;48.072;11.616;2023-05-14T09:12:23;95057.88;;;12.97;71.70
9225;BME280;4647;48.072;11.616;2023-05-14T09:14:52;95049.44;;;12.79;71.83
9225;BME280;4647;48.072;11.616;2023-05-14T09:17:21;95054.81;;;12.66;73.28
9225;BME280;4647;48.072;11.616;2023-05-14T09:19:52;95049.94;;;12.74;73.13
9225;BME280;4647;48.072;11.616;2023-05-14T09:22:30;95044.38;;;12.94;73.04
9225;BME280;4647;48.072;11.616;2023-05-14T09:25:04;95039.63;;;13.39;70.98
9225;BME280;4647;48.072;11.616;2023-05-14T09:27:34;95043.84;;;13.28;70.45
9225;BME280;4647;48.072;11.616;2023-05-14T09:30:06;95039.53;;;13.14;70.93
9225;BME280;4647;48.072;11.616;2023-05-14T09:32:37;95047.47;;;13.50;70.69
9225;BME280;4647;48.072;11.616;2023-05-14T09:35:09;95055.19;;;13.39;70.42
9225;BME280;4647;48.072;11.616;2023-05-14T09:37:43;95061.31;;;13.14;69.97
9225;BME280;4647;48.072;11.616;2023-05-14T09:40:13;95058.59;;;12.56;72.03
9225;BME280;4647;48.072;11.616;2023-05-14T09:42:42;95054.06;;;12.66;72.13
9225;BME280;4647;48.072;11.616;2023-05-14T09:45:14;95043.34;;;11.97;75.09
9225;BME280;4647;48.072;11.616;2023-05-14T09:47:43;95050.69;;;11.80;75.77
9225;BME280;4647;48.072;11.616;2023-05-14T09:50:14;95055.31;;;11.99;75.23
9225;BME280;4647;48.072;11.616;2023-05-14T09:52:45;95056.16;;;12.13;75.16
9225;BME280;4647;48.072;11.616;2023-05-14T09:55:15;95058.44;;;11.82;75.93
9225;BME280;4647;48.072;11.616;2023-05-14T09:57:44;95022.09;;;11.59;75.96
9225;BME280;4647;48.072;11.616;2023-05-14T10:00:14;95049.94;;;11.80;76.05
9225;BME280;4647;48.072;11.616;2023-05-14T10:02:44;95048.84;;;11.57;nan
9225;BME280;4647;48.072;11.616;2023-05-14T10:05:14;95051.31;;;11.52;77.55
9225;BME280;4647;48.072;11.616;2023-05-14T10:07:50;95053.88;;;12.11;75.82
9225;BME280;4647;48.072;11.616;2023-05-14T10:10:23;95046.59;;;11.72;76.19
9225;BME280;4647;48.072;11.616;2023-05-14T10:12:56;95048.78;;;11.97;75.13
9225;BME280;4647;48.072;11.616;2023-05-14T10:15:35;95040.72;;;11.57;76.03
9225;BME280;4647;48.072;11.616;2023-05-14T10:18:08;95052.34;;;11.94;75.11
9225;BME280;4647;48.072;11.616;2023-05-14T10:20:37;95058.25;;;12.05;74.88
9225;BME280;4647;48.072;11.616;2023-05-14T10:23:17;95051.31;;;12.04;74.04
9225;BME280;4647;48.072;11.616;2023-05-14T10:25:46;95063.63;;;11.92;75.06
9225;BME280;4647;48.072;11.616;2023-05-14T10:28:15;95054.19;;;11.97;74.76
9225;BME280;4647;48.072;11.616;2023-05-14T10:30:44;95053.78;;;12.15;73.86
9225;BME280;4647;48.072;11.616;2023-05-14T10:33:16;95051.47;;;12.46;72.40
9225;BME280;4647;48.072;11.616;2023-05-14T10:36:20;95062.34;;;12.29;72.23
9225;BME280;4647;48.072;11.616;2023-05-14T10:38:54;95057.66;;;12.46;72.02
9225;BME280;4647;48.072;11.616;2023-05-14T10:41:25;95053.00;;;12.76;70.94
9225;BME280;4647;48.072;11.616;2023-05-14T10:43:56;95055.06;;;12.72;70.29
9225;BME280;4647;48.072;11.616;2023-05-14T10:46:26;95054.88;;;13.08;69.94
9225;BME280;4647;48.072;11.616;2023-05-14T10:48:55;95053.97;;;13.27;68.67
9225;BME280;4647;48.072;11.616;2023-05-14T10:51:27;95052.50;;;13.51;68.23
9225;BME280;4647;48.072;11.616;2023-05-14T10:53:59;95044.94;;;13.43;67.81
9225;BME280;4647;48.072;11.616;2023-05-14T10:56:28;95044.66;;;13.12;69.01
9225;BME280;4647;48.072;11.616;2023-05-14T10:58:57;95053.72;;;12.93;69.42
9225;BME280;4647;48.072;11.616;2023-05-14T11:01:27;95014.81;;;12.38;70.37
9225;BME280;4647;48.072;11.616;2023-05-14T11:03:57;95038.97;;;12.77;69.65
9225;BME280;4647;48.072;11.616;2023-05-14T11:06:26;95047.06;;;12.81;69.42
9225;BME280;4647;48.072;11.616;2023-05-14T11:08:59;95035.69;;;12.41;70.56
9225;BME280;4647;48.072;11.616;2023-05-14T11:11:28;95036.31;;;12.90;69.79
9225;BME280;4647;48.072;11.616;2023-05-14T11:13:57;95021.78;;;13.51;68.50
9225;BME280;4647;48.072;11.616;2023-05-14T11:16:26;95024.38;;;14.05;65.50
9225;BME280;4647;48.072;11.616;2023-05-14T11:19:00;95009.91;;;13.58;67.00
9225;BME280;4647;48.072;11.616;2023-05-14T11:21:29;95011.47;;;14.19;66.54
9225;BME280;4647;48.072;11.616;2023-05-14T11:24:01;95016.56;;;14.77;63.78
9225;BME280;4647;48.072;11.616;2023-05-14T11:26:30;95010.66;;;15.44;61.05
9225;BME280;4647;48.072;11.616;2023-05-14T11:29:00;95022.31;;;14.91;61.90
9225;BME280;4647;48.072;11.616;2023-05-14T11:31:28;95028.56;;;15.01;61.85
9225;BME280;4647;48.072;11.616;2023-05-14T11:33:57;95030.59;;;15.31;60.63
9225;BME280;4647;48.072;11.616;2023-05-14T11:36:28;95022.00;;;15.42;59.86
9225;BME280;4647;48.072;11.616;2023-05-14T11:39:04;95022.06;;;15.51;58.92
9225;BME280;4647;48.072;11.616;2023-05-14T11:41:43;95010.22;;;16.44;56.16
9225;BME280;4647;48.072;11.616;2023-05-14T11:44:12;95004.06;;;16.03;56.55
9225;BME280;4647;48.072;11.616;2023-05-14T11:46:53;95010.97;;;16.53;56.71
9225;BME280;4647;48.072;11.616;2023-05-14T11:49:21;95001.22;;;15.67;57.47
9225;BME280;4647;48.072;11.616;2023-05-14T11:51:56;94991.91;;;15.95;55.50
9225;BME280;4647;48.072;11.616;2023-05-14T11:54:29;95001.81;;;15.61;55.86
9225;BME280;4647;48.072;11.616;2023-05-14T11:57:00;94989.47;;;15.97;55.86
9225;BME280;4647;48.072;11.616;2023-05-14T11:59:30;94991.13;;;15.23;58.69
9225;BME280;4647;48.072;11.616;2023-05-14T12:02:00;94996.53;;;15.14;59.40
9225;BME280;4647;48.072;11.616;2023-05-14T12:04:29;94987.81;;;16.09;56.33
9225;BME280;4647;48.072;11.616;2023-05-14T12:06:59;94986.28;;;15.99;55.93
9225;BME280;4647;48.072;11.616;2023-05-14T12:09:35;94985.03;;;16.76;53.79
9225;BME280;4647;48.072;11.616;2023-05-14T12:12:08;94972.56;;;16.75;52.75
9225;BME280;4647;48.072;11.616;2023-05-14T12:20:23;94968.53;;;15.94;56.63
9225;BME280;4647;48.072;11.616;2023-05-14T12:22:53;94961.69;;;16.08;55.38
9225;BME280;4647;48.072;11.616;2023-05-14T12:25:24;94956.69;;;15.57;57.85
9225;BME280;4647;48.072;11.616;2023-05-14T12:27:53;94949.09;;;15.92;54.24
9225;BME280;4647;48.072;11.616;2023-05-14T12:30:21;94947.28;;;15.18;56.56
9225;BME280;4647;48.072;11.616;2023-05-14T12:32:50;94944.28;;;15.25;57.84
9225;BME280;4647;48.072;11.616;2023-05-14T12:35:20;94943.03;;;15.57;57.46
9225;BME280;4647;48.072;11.616;2023-05-14T12:37:51;94948.06;;;16.17;53.82
9225;BME280;4647;48.072;11.616;2023-05-14T12:40:20;94936.69;;;16.27;53.52
9225;BME280;4647;48.072;11.616;2023-05-14T12:42:51;94950.41;;;15.69;54.50
9225;BME280;4647;48.072;11.616;2023-05-14T12:45:19;94942.72;;;15.95;55.17
9225;BME280;4647;48.072;11.616;2023-05-14T12:47:49;94922.53;;;15.52;56.23
9225;BME280;4647;48.072;11.616;2023-05-14T12:50:18;94939.88;;;15.27;56.98
9225;BME280;4647;48.072;11.616;2023-05-14T12:52:46;94932.19;;;15.04;57.48
9225;BME280;4647;48.072;11.616;2023-05-14T12:55:15;94931.34;;;15.16;56.58
9225;BME280;4647;48.072;11.616;2023-05-14T12:57:43;94915.00;;;15.25;55.35
9225;BME280;4647;48.072;11.616;2023-05-14T13:00:15;94935.28;;;15.46;56.92
9225;BME280;4647;48.072;11.616;2023-05-14T13:02:44;94932.63;;;15.64;53.15
9225;BME280;4647;48.072;11.616;2023-05-14T13:05:13;94917.25;;;15.58;53.46
9225;BME280;4647;48.072;11.616;2023-05-14T13:07:41;94929.59;;;15.62;54.90
9225;BME280;4647;48.072;11.616;2023-05-14T13:10:10;94920.06;;;15.05;57.25
9225;BME280;4647;48.072;11.616;2023-05-14T13:12:38;94913.84;;;14.73;56.74
9225;BME280;4647;48.072;11.616;2023-05-14T13:15:08;94911.88;;;15.05;55.70
9225;BME280;4647;48.072;11.616;2023-05-14T13:17:39;94873.59;;;14.87;55.59
9225;BME280;4647;48.072;11.616;2023-05-14T13:20:08;94890.03;;;14.96;55.05
9225;BME280;4647;48.072;11.616;2023-05-14T13:22:37;94888.97;;;14.71;55.84
9225;BME280;4647;48.072;11.616;2023-05-14T13:25:07;94877.06;;;15.58;55.73
9225;BME280;4647;48.072;11.616;2023-05-14T13:27:35;94899.63;;;16.26;53.01
9225;BME280;4647;48.072;11.616;2023-05-14T13:30:05;94881.53;;;16.56;52.29
9225;BME280;4647;48.072;11.616;2023-05-14T13:57:02;94861.75;;;17.22;50.18